Time;durP1;ratioP1;P1;durP2;ratioP2;P2;SDS_P1;SDS_P2;PMS_P1;PMS_P2;Temp;Humidity;BMP_temperature;BMP_pressure;BME280_temperature;BME280_humidity;BME280_pressure;Samples;Min_cycle;Max_cycle;Signal;HPM_P1;HPM_P2
2022/10/01 00:01:43;;;;;;;4.70;3.75;;;11.80;99.90;;;;;;5073882;28;20547;-66
2022/10/01 00:04:09;;;;;;;4.82;3.95;;;11.80;99.90;;;;;;5074264;28;20045;-65
2022/10/01 00:06:35;;;;;;;3.85;3.40;;;11.70;99.90;;;;;;5073199;28;20083;-65
2022/10/01 00:09:00;;;;;;;4.75;3.90;;;11.70;99.90;;;;;;5074225;28;20056;-65
2022/10/01 00:11:26;;;;;;;4.53;3.60;;;11.60;99.90;;;;;;5073933;28;20053;-65
2022/10/01 00:13:53;;;;;;;5.55;4.07;;;11.50;99.90;;;;;;5074042;28;20052;-65
2022/10/01 00:16:24;;;;;;;5.40;3.72;;;11.50;99.90;;;;;;5073911;28;20048;-65
2022/10/01 00:18:52;;;;;;;5.00;3.80;;;11.50;99.90;;;;;;5073906;28;20052;-65
2022/10/01 00:21:21;;;;;;;5.07;3.58;;;11.40;99.90;;;;;;5072810;28;20143;-65
2022/10/01 00:23:52;;;;;;;4.82;4.32;;;11.40;99.90;;;;;;5074143;28;20366;-65
2022/10/01 00:26:20;;;;;;;4.88;3.95;;;11.30;99.90;;;;;;5074151;28;20106;-65
2022/10/01 00:28:51;;;;;;;5.45;3.67;;;11.30;99.90;;;;;;5073783;28;20090;-64
2022/10/01 00:31:17;;;;;;;5.47;4.13;;;11.30;99.90;;;;;;5073859;28;20056;-65
2022/10/01 00:33:43;;;;;;;5.20;3.90;;;11.30;99.90;;;;;;5073691;28;20049;-65
2022/10/01 00:36:10;;;;;;;6.60;4.68;;;11.20;99.90;;;;;;5073267;28;20049;-65
2022/10/01 00:38:36;;;;;;;6.28;4.60;;;11.20;99.90;;;;;;5073498;28;20620;-65
2022/10/01 00:41:03;;;;;;;5.82;4.07;;;11.20;99.90;;;;;;5073489;28;20089;-65
2022/10/01 00:43:38;;;;;;;4.90;4.40;;;11.20;99.90;;;;;;5073801;28;20405;-65
2022/10/01 00:46:41;;;;;;;5.67;4.53;;;11.10;99.90;;;;;;5073566;28;20143;-65
2022/10/01 00:49:17;;;;;;;5.32;4.15;;;11.10;99.90;;;;;;5074044;28;20048;-65
2022/10/01 00:51:47;;;;;;;5.80;4.13;;;11.10;99.90;;;;;;5073405;28;20041;-64
2022/10/01 00:54:29;;;;;;;5.47;4.47;;;11.00;99.90;;;;;;5072096;28;20049;-65
2022/10/01 00:56:58;;;;;;;4.43;3.97;;;11.00;99.90;;;;;;5073673;28;20054;-64
2022/10/01 00:59:25;;;;;;;5.43;4.65;;;11.00;99.90;;;;;;5073868;28;20367;-64
2022/10/01 01:01:51;;;;;;;5.82;4.65;;;11.00;99.90;;;;;;5073284;28;20041;-65
2022/10/01 01:04:16;;;;;;;4.95;4.15;;;11.00;99.90;;;;;;5073248;28;20040;-65
2022/10/01 01:06:54;;;;;;;4.82;4.05;;;11.00;99.90;;;;;;5073302;28;20443;-65
2022/10/01 01:09:32;;;;;;;5.00;4.50;;;11.00;99.90;;;;;;5073780;28;20048;-65
2022/10/01 01:12:16;;;;;;;5.50;4.30;;;11.00;99.90;;;;;;5073356;28;20061;-65
2022/10/01 01:14:56;;;;;;;5.75;4.63;;;11.00;99.90;;;;;;5074318;28;20059;-65
2022/10/01 01:17:53;;;;;;;5.70;4.20;;;11.00;99.90;;;;;;5072869;28;20493;-65
2022/10/01 01:20:40;;;;;;;5.50;4.13;;;10.90;99.90;;;;;;5067397;28;20052;-65
2022/10/01 01:23:15;;;;;;;5.75;4.43;;;10.90;99.90;;;;;;5073638;28;20045;-65
2022/10/01 01:26:05;;;;;;;6.45;4.28;;;10.90;99.90;;;;;;5073564;28;20060;-65
2022/10/01 01:28:32;;;;;;;4.70;4.05;;;10.90;99.90;;;;;;5073104;28;20084;-65
2022/10/01 01:31:07;;;;;;;5.85;4.40;;;10.90;99.90;;;;;;5071920;28;20040;-65
2022/10/01 01:33:36;;;;;;;6.43;4.53;;;10.90;99.90;;;;;;5073589;28;20102;-66
2022/10/01 01:36:09;;;;;;;5.65;4.05;;;10.90;99.90;;;;;;5072940;28;20051;-65
2022/10/01 01:38:41;;;;;;;7.00;4.50;;;10.90;99.90;;;;;;5072965;28;20044;-65
2022/10/01 01:41:09;;;;;;;5.55;4.35;;;10.90;99.90;;;;;;5073462;28;20090;-65
2022/10/01 01:43:43;;;;;;;5.32;4.40;;;10.90;99.90;;;;;;5072915;28;20049;-65
2022/10/01 01:46:11;;;;;;;4.68;4.18;;;10.90;99.90;;;;;;5072273;28;20044;-65
2022/10/01 01:48:40;;;;;;;6.45;4.78;;;10.80;99.90;;;;;;5073431;28;20040;-65
2022/10/01 01:51:15;;;;;;;5.70;4.60;;;10.90;99.90;;;;;;5072789;28;20485;-65
2022/10/01 01:53:41;;;;;;;5.60;4.32;;;10.80;99.90;;;;;;5072880;28;20052;-65
2022/10/01 01:56:07;;;;;;;6.95;4.57;;;10.80;99.90;;;;;;5072820;28;20048;-65
2022/10/01 01:58:34;;;;;;;4.82;4.05;;;10.80;99.90;;;;;;5072829;28;20053;-65
2022/10/01 02:01:01;;;;;;;5.28;4.50;;;10.80;99.90;;;;;;5072722;28;20131;-64
2022/10/01 02:03:28;;;;;;;5.60;4.72;;;10.80;99.90;;;;;;5073119;28;20040;-65
2022/10/01 02:06:02;;;;;;;5.30;4.43;;;10.80;99.90;;;;;;5076466;28;20171;-65
2022/10/01 02:08:46;;;;;;;5.95;4.90;;;10.70;99.90;;;;;;5076316;28;20044;-65
2022/10/01 02:11:36;;;;;;;6.68;4.70;;;10.70;99.90;;;;;;5076483;28;20036;-65
2022/10/01 02:14:12;;;;;;;5.07;4.22;;;10.70;99.90;;;;;;5076286;28;20080;-65
2022/10/01 02:16:49;;;;;;;7.75;5.00;;;10.80;99.90;;;;;;5076949;28;20127;-64
2022/10/01 02:19:26;;;;;;;5.85;4.80;;;10.70;99.90;;;;;;5077146;28;20483;-65
2022/10/01 02:21:58;;;;;;;5.80;4.63;;;10.70;99.90;;;;;;5076141;28;20457;-65
2022/10/01 02:24:44;;;;;;;6.53;4.55;;;10.70;99.90;;;;;;5076208;28;20182;-64
2022/10/01 02:27:21;;;;;;;5.43;4.35;;;10.70;99.90;;;;;;5075059;28;20132;-65
2022/10/01 02:29:48;;;;;;;7.05;5.10;;;10.70;99.90;;;;;;5076206;28;20075;-65
2022/10/01 02:32:17;;;;;;;6.20;4.93;;;10.70;99.90;;;;;;5076046;28;20076;-65
2022/10/01 02:34:44;;;;;;;6.55;5.35;;;10.70;99.90;;;;;;5075997;28;20048;-64
2022/10/01 02:37:11;;;;;;;6.93;5.38;;;10.70;99.90;;;;;;5075781;28;20485;-65
2022/10/01 02:39:40;;;;;;;6.75;4.45;;;10.70;99.90;;;;;;5075934;28;20197;-65
2022/10/01 02:42:09;;;;;;;6.07;4.93;;;10.70;99.90;;;;;;5076241;28;20047;-65
2022/10/01 02:44:41;;;;;;;6.55;5.05;;;10.60;99.90;;;;;;5075805;28;20070;-65
2022/10/01 02:47:20;;;;;;;5.65;4.90;;;10.70;99.90;;;;;;5076320;28;20044;-65
2022/10/01 02:49:47;;;;;;;5.93;5.10;;;11.00;99.90;;;;;;5075998;28;20490;-65
2022/10/01 02:52:24;;;;;;;5.75;4.32;;;10.60;99.90;;;;;;5075587;28;20482;-65
2022/10/01 02:55:02;;;;;;;5.43;4.57;;;10.60;99.90;;;;;;5076173;28;20056;-64
2022/10/01 02:57:28;;;;;;;5.82;4.68;;;10.70;99.90;;;;;;5076147;28;20132;-64
2022/10/01 03:00:05;;;;;;;5.35;4.68;;;10.70;99.90;;;;;;5075486;28;20049;-64
2022/10/01 03:02:31;;;;;;;5.25;4.10;;;10.80;99.90;;;;;;5075957;28;20044;-65
2022/10/01 03:04:58;;;;;;;4.28;3.65;;;10.70;99.90;;;;;;5075951;28;20374;-66
2022/10/01 03:07:26;;;;;;;5.25;4.25;;;10.80;99.90;;;;;;5075331;28;20131;-65
2022/10/01 03:09:51;;;;;;;5.47;4.10;;;10.80;99.90;;;;;;5075324;28;20078;-66
2022/10/01 03:12:17;;;;;;;4.13;3.60;;;10.90;99.90;;;;;;5073996;28;20086;-65
2022/10/01 03:14:43;;;;;;;4.80;4.22;;;10.90;99.90;;;;;;5075192;28;20440;-66
2022/10/01 03:17:11;;;;;;;4.80;3.80;;;10.90;99.90;;;;;;5074687;28;20052;-65
2022/10/01 03:19:36;;;;;;;5.30;3.80;;;10.90;99.90;;;;;;5075191;28;20123;-65
2022/10/01 03:22:02;;;;;;;4.97;3.55;;;10.90;99.90;;;;;;5075070;28;20131;-65
2022/10/01 03:24:28;;;;;;;4.95;3.40;;;10.90;99.90;;;;;;5074387;28;20094;-66
2022/10/01 03:26:55;;;;;;;4.43;3.58;;;10.90;99.90;;;;;;5074506;28;20044;-65
2022/10/01 03:29:22;;;;;;;5.05;3.72;;;11.00;99.90;;;;;;5074707;28;20558;-65
2022/10/01 03:31:47;;;;;;;4.32;3.20;;;11.00;99.90;;;;;;5074651;28;20062;-67
2022/10/01 03:34:13;;;;;;;3.30;2.90;;;11.00;99.90;;;;;;5074715;28;20157;-66
2022/10/01 03:36:39;;;;;;;4.07;3.28;;;11.00;99.90;;;;;;5075271;28;20051;-66
2022/10/01 03:39:04;;;;;;;3.70;2.80;;;11.00;99.90;;;;;;5074472;28;20056;-65
2022/10/01 03:41:30;;;;;;;3.70;2.88;;;11.00;99.90;;;;;;5074633;28;20048;-66
2022/10/01 03:43:56;;;;;;;3.60;3.10;;;11.00;99.90;;;;;;5074674;28;20047;-65
2022/10/01 03:46:21;;;;;;;4.13;3.00;;;11.00;99.90;;;;;;5074665;28;20048;-65
2022/10/01 03:48:48;;;;;;;2.90;2.50;;;11.00;99.90;;;;;;5075085;28;20457;-66
2022/10/01 03:51:14;;;;;;;3.63;2.92;;;11.00;99.90;;;;;;5075114;28;20055;-65
2022/10/01 03:53:40;;;;;;;3.42;2.70;;;11.00;99.90;;;;;;5074163;28;20477;-65
2022/10/01 03:56:06;;;;;;;3.33;2.60;;;11.00;99.90;;;;;;5075170;28;20067;-65
2022/10/01 03:58:31;;;;;;;3.15;2.47;;;11.00;99.90;;;;;;5074304;28;20056;-65
2022/10/01 04:00:59;;;;;;;3.58;2.67;;;11.10;99.90;;;;;;5074303;28;20435;-65
2022/10/01 04:03:25;;;;;;;3.00;2.50;;;11.00;99.90;;;;;;5074795;28;20346;-66
2022/10/01 04:05:51;;;;;;;3.58;2.17;;;10.90;99.90;;;;;;5074169;28;20075;-65
2022/10/01 04:08:16;;;;;;;3.20;2.35;;;10.90;99.90;;;;;;5073842;28;20547;-65
2022/10/01 04:10:42;;;;;;;3.28;2.38;;;10.90;99.90;;;;;;5074151;28;20049;-65
2022/10/01 04:13:08;;;;;;;2.92;2.50;;;10.90;99.90;;;;;;5072977;28;20052;-65
2022/10/01 04:15:34;;;;;;;3.70;2.60;;;10.90;99.90;;;;;;5073842;28;20059;-65
2022/10/01 04:18:04;;;;;;;3.13;2.38;;;10.90;99.90;;;;;;5072837;28;20048;-65
2022/10/01 04:20:35;;;;;;;4.18;2.25;;;11.10;99.90;;;;;;5073974;28;20063;-65
2022/10/01 04:23:01;;;;;;;3.25;2.30;;;10.90;99.90;;;;;;5073862;28;20052;-65
2022/10/01 04:25:27;;;;;;;3.10;2.13;;;10.90;99.90;;;;;;5073902;28;20143;-65
2022/10/01 04:28:01;;;;;;;3.53;2.40;;;11.00;99.90;;;;;;5073677;28;20063;-65
2022/10/01 04:30:33;;;;;;;2.72;2.38;;;11.00;99.90;;;;;;5073441;28;20478;-65
2022/10/01 04:32:59;;;;;;;3.33;2.70;;;11.00;99.90;;;;;;5072674;28;20041;-67
2022/10/01 04:35:25;;;;;;;3.10;2.30;;;11.10;99.90;;;;;;5072688;28;20068;-65
2022/10/01 04:38:02;;;;;;;2.90;2.22;;;11.00;99.90;;;;;;5073647;28;20048;-65
2022/10/01 04:40:29;;;;;;;3.20;2.33;;;11.00;99.90;;;;;;5073628;28;20048;-65
2022/10/01 04:42:54;;;;;;;2.60;2.10;;;11.00;99.90;;;;;;5074285;28;20099;-65
2022/10/01 04:45:20;;;;;;;3.58;2.42;;;11.00;99.90;;;;;;5074404;28;20497;-65
2022/10/01 04:47:48;;;;;;;2.83;2.08;;;11.10;99.90;;;;;;5073582;28;20477;-65
2022/10/01 04:50:15;;;;;;;2.58;2.20;;;11.00;99.90;;;;;;5074023;28;20105;-65
2022/10/01 04:52:40;;;;;;;2.70;2.17;;;11.00;99.90;;;;;;5073532;28;20045;-65
2022/10/01 04:55:07;;;;;;;2.75;2.10;;;11.10;99.90;;;;;;5073454;28;20040;-66
2022/10/01 04:57:34;;;;;;;3.47;2.33;;;11.00;99.90;;;;;;5073405;28;20389;-65
2022/10/01 05:00:00;;;;;;;2.65;2.20;;;11.00;99.90;;;;;;5073363;28;20055;-65
2022/10/01 05:02:28;;;;;;;2.47;1.90;;;11.00;99.90;;;;;;5073567;28;20366;-65
2022/10/01 05:04:54;;;;;;;2.63;2.00;;;11.10;99.90;;;;;;5073810;28;20044;-65
2022/10/01 05:07:21;;;;;;;2.40;1.95;;;11.10;99.90;;;;;;5073279;28;20048;-65
2022/10/01 05:09:47;;;;;;;2.60;2.08;;;11.00;99.90;;;;;;5073267;28;20404;-65
2022/10/01 05:12:13;;;;;;;3.03;2.28;;;11.10;99.90;;;;;;5073102;28;20135;-65
2022/10/01 05:14:39;;;;;;;2.92;2.08;;;11.20;99.90;;;;;;5073227;28;20489;-65
2022/10/01 05:17:06;;;;;;;2.70;2.03;;;11.20;99.90;;;;;;5073181;28;20094;-65
2022/10/01 05:19:32;;;;;;;2.55;1.80;;;11.20;99.90;;;;;;5073458;28;20048;-65
2022/10/01 05:21:58;;;;;;;2.60;2.10;;;11.20;99.90;;;;;;5073100;28;20048;-65
2022/10/01 05:24:24;;;;;;;2.50;2.00;;;11.10;99.90;;;;;;5073663;28;20060;-65
2022/10/01 05:26:52;;;;;;;3.20;2.30;;;11.30;99.90;;;;;;5072769;28;20634;-66
2022/10/01 05:29:19;;;;;;;3.28;2.38;;;11.30;99.90;;;;;;5073068;28;20041;-65
2022/10/01 05:31:45;;;;;;;3.00;2.20;;;11.30;99.90;;;;;;5073000;28;20547;-65
2022/10/01 05:34:11;;;;;;;3.70;2.58;;;11.30;99.90;;;;;;5073570;28;20056;-65
2022/10/01 05:36:37;;;;;;;3.25;2.42;;;11.30;99.90;;;;;;5073577;28;20063;-66
2022/10/01 05:39:02;;;;;;;3.03;2.30;;;11.40;99.90;;;;;;5074346;28;20055;-67
2022/10/01 05:41:28;;;;;;;2.85;2.55;;;11.40;99.90;;;;;;5077012;28;20044;-67
2022/10/01 05:43:54;;;;;;;2.80;2.50;;;11.40;99.90;;;;;;5076933;28;20060;-67
2022/10/01 05:46:20;;;;;;;2.85;2.45;;;11.30;99.90;;;;;;5076935;28;20059;-66
2022/10/01 05:48:50;;;;;;;2.70;2.40;;;11.40;99.90;;;;;;5076885;28;20049;-67
2022/10/01 05:51:16;;;;;;;3.45;2.78;;;11.40;99.90;;;;;;5076824;28;20417;-67
2022/10/01 05:53:42;;;;;;;2.70;2.40;;;11.50;99.90;;;;;;5077256;28;20482;-67
2022/10/01 05:56:09;;;;;;;3.13;2.25;;;11.50;99.90;;;;;;5076728;28;20186;-67
2022/10/01 05:58:35;;;;;;;3.30;2.60;;;11.50;99.90;;;;;;5076674;28;20056;-66
2022/10/01 06:01:01;;;;;;;2.90;2.60;;;11.50;99.90;;;;;;5076728;28;20040;-66
2022/10/01 06:03:27;;;;;;;3.83;2.90;;;11.60;99.90;;;;;;5076126;28;20088;-66
2022/10/01 06:05:53;;;;;;;2.95;2.60;;;11.70;99.90;;;;;;5076891;28;20141;-66
2022/10/01 06:08:19;;;;;;;2.97;2.67;;;11.70;99.90;;;;;;5076273;28;20047;-66
2022/10/01 06:10:45;;;;;;;3.13;2.70;;;11.70;99.90;;;;;;5076059;28;20040;-66
2022/10/01 06:13:16;;;;;;;3.17;2.88;;;11.70;99.90;;;;;;5074567;28;20053;-67
2022/10/01 06:15:44;;;;;;;3.65;2.88;;;11.80;99.90;;;;;;5074901;28;20369;-66
2022/10/01 06:18:12;;;;;;;3.60;3.30;;;11.80;99.90;;;;;;5076440;28;20098;-67
2022/10/01 06:20:39;;;;;;;3.70;2.97;;;11.80;99.90;;;;;;5076682;28;20044;-66
2022/10/01 06:23:08;;;;;;;3.60;3.10;;;11.80;99.90;;;;;;5076605;28;20051;-66
2022/10/01 06:25:36;;;;;;;3.38;2.97;;;11.80;99.90;;;;;;5076088;28;20044;-66
2022/10/01 06:28:01;;;;;;;4.25;3.30;;;11.80;99.90;;;;;;5076061;28;20056;-67
2022/10/01 06:30:30;;;;;;;4.30;3.30;;;11.90;99.90;;;;;;5076045;28;20102;-67
2022/10/01 06:33:03;;;;;;;4.18;3.78;;;11.90;99.90;;;;;;5076587;28;20052;-67
2022/10/01 06:35:30;;;;;;;5.20;3.47;;;11.90;99.90;;;;;;5076591;28;20454;-67
2022/10/01 06:37:55;;;;;;;4.30;3.63;;;11.90;99.90;;;;;;5074671;28;20123;-66
2022/10/01 06:40:21;;;;;;;3.92;3.53;;;11.90;99.90;;;;;;5075875;28;20072;-67
2022/10/01 06:42:49;;;;;;;4.93;3.80;;;12.00;99.90;;;;;;5076632;28;20099;-66
2022/10/01 06:45:16;;;;;;;4.68;4.10;;;12.00;99.90;;;;;;5076382;28;20156;-66
2022/10/01 06:47:43;;;;;;;4.40;4.00;;;12.00;99.90;;;;;;5075744;28;20397;-66
2022/10/01 06:50:09;;;;;;;4.47;3.60;;;12.10;99.90;;;;;;5074809;28;20397;-66
2022/10/01 06:52:48;;;;;;;5.00;4.60;;;12.10;99.90;;;;;;5075628;28;20047;-65
2022/10/01 06:55:19;;;;;;;6.13;3.88;;;12.20;99.90;;;;;;5075622;28;20127;-68
2022/10/01 06:57:45;;;;;;;4.15;3.60;;;12.20;99.90;;;;;;5076299;28;20117;-66
2022/10/01 07:00:13;;;;;;;5.97;3.80;;;12.20;99.90;;;;;;5076241;28;20041;-62
2022/10/01 07:02:39;;;;;;;5.57;4.20;;;12.20;99.90;;;;;;5075651;28;20127;-62
2022/10/01 07:05:06;;;;;;;4.78;3.80;;;12.20;99.90;;;;;;5075453;28;20045;-61
2022/10/01 07:07:35;;;;;;;5.95;4.25;;;12.20;99.90;;;;;;5075514;28;20185;-62
2022/10/01 07:10:03;;;;;;;5.22;4.72;;;12.20;99.90;;;;;;5075277;28;20135;-62
2022/10/01 07:12:28;;;;;;;5.43;4.18;;;12.30;99.90;;;;;;5075453;28;20057;-62
2022/10/01 07:14:54;;;;;;;5.60;4.40;;;12.40;99.90;;;;;;5075218;28;20404;-61
2022/10/01 07:17:21;;;;;;;7.15;4.53;;;12.40;99.90;;;;;;5075986;28;20102;-61
2022/10/01 07:19:46;;;;;;;5.05;4.38;;;12.50;99.90;;;;;;5075955;28;20419;-62
2022/10/01 07:22:12;;;;;;;5.57;4.72;;;12.50;99.90;;;;;;5075023;28;20097;-61
2022/10/01 07:24:38;;;;;;;5.05;4.03;;;12.50;99.90;;;;;;5075879;28;20211;-61
2022/10/01 07:27:04;;;;;;;5.55;4.45;;;12.50;99.90;;;;;;5074804;28;20068;-62
2022/10/01 07:29:30;;;;;;;5.90;4.63;;;12.50;99.90;;;;;;5074971;28;20044;-61
2022/10/01 07:31:58;;;;;;;6.35;4.75;;;12.50;99.90;;;;;;5073974;28;20460;-62
2022/10/01 07:34:29;;;;;;;6.25;5.25;;;12.50;99.90;;;;;;5073642;28;20508;-62
2022/10/01 07:36:55;;;;;;;5.78;4.90;;;12.60;99.90;;;;;;5075666;28;20071;-62
2022/10/01 07:39:22;;;;;;;5.75;5.15;;;12.60;99.90;;;;;;5073471;28;20045;-62
2022/10/01 07:41:49;;;;;;;6.30;4.75;;;12.70;99.90;;;;;;5074312;28;20477;-62
2022/10/01 07:44:15;;;;;;;5.88;4.72;;;12.70;99.90;;;;;;5075114;28;20128;-61
2022/10/01 07:46:40;;;;;;;6.22;4.78;;;12.70;99.90;;;;;;5074462;28;20149;-61
2022/10/01 07:49:08;;;;;;;6.60;4.43;;;12.70;99.90;;;;;;5075357;28;20036;-61
2022/10/01 07:51:35;;;;;;;7.95;4.70;;;12.80;99.90;;;;;;5074729;28;20405;-62
2022/10/01 07:54:02;;;;;;;5.75;4.70;;;12.80;99.90;;;;;;5073603;28;20060;-62
2022/10/01 07:56:28;;;;;;;5.68;4.45;;;12.80;99.90;;;;;;5073994;28;20474;-62
2022/10/01 07:58:57;;;;;;;4.95;4.45;;;12.90;99.90;;;;;;5074964;28;20123;-61
2022/10/01 08:01:24;;;;;;;7.10;4.78;;;13.00;99.90;;;;;;5074230;28;20141;-61
2022/10/01 08:03:51;;;;;;;6.53;4.70;;;13.10;99.90;;;;;;5074201;28;20055;-61
2022/10/01 08:06:18;;;;;;;5.90;4.78;;;13.10;99.90;;;;;;5074088;28;20496;-61
2022/10/01 08:08:45;;;;;;;5.30;4.80;;;13.20;99.90;;;;;;5073971;28;20052;-61
2022/10/01 08:11:13;;;;;;;6.25;4.70;;;13.20;99.90;;;;;;5073923;28;20045;-61
2022/10/01 08:13:40;;;;;;;7.45;5.47;;;13.30;99.90;;;;;;5074317;28;20044;-61
2022/10/01 08:16:08;;;;;;;8.95;5.30;;;13.50;99.90;;;;;;5073885;28;20346;-61
2022/10/01 08:18:35;;;;;;;4.85;4.10;;;13.80;99.90;;;;;;5074014;28;20365;-61
2022/10/01 08:21:02;;;;;;;4.43;3.22;;;14.00;99.90;;;;;;5073783;28;20098;-61
2022/10/01 08:23:30;;;;;;;6.13;3.13;;;14.10;99.90;;;;;;5073703;28;20045;-62
2022/10/01 08:26:00;;;;;;;4.97;3.20;;;14.00;99.90;;;;;;5073844;28;20099;-62
2022/10/01 08:28:26;;;;;;;5.95;3.30;;;13.90;99.90;;;;;;5073746;28;20044;-62
2022/10/01 08:30:51;;;;;;;6.07;3.40;;;13.80;99.90;;;;;;5074753;28;20113;-62
2022/10/01 08:33:17;;;;;;;7.25;3.55;;;13.80;99.90;;;;;;5073458;28;20449;-61
2022/10/01 08:35:43;;;;;;;4.32;3.28;;;13.90;99.90;;;;;;5074152;28;20045;-61
2022/10/01 08:38:10;;;;;;;5.05;2.80;;;13.90;99.90;;;;;;5073369;28;20481;-61
2022/10/01 08:40:44;;;;;;;5.00;3.22;;;14.00;99.90;;;;;;5073405;28;20452;-62
2022/10/01 08:43:32;;;;;;;4.90;3.25;;;14.00;99.90;;;;;;5073302;28;20053;-60
2022/10/01 08:46:05;;;;;;;7.35;3.85;;;14.20;99.90;;;;;;5073314;28;20041;-61
2022/10/01 08:48:37;;;;;;;5.40;3.50;;;14.30;99.90;;;;;;5072473;28;20489;-61
2022/10/01 08:51:10;;;;;;;4.10;3.08;;;14.40;99.90;;;;;;5074182;28;20052;-63
2022/10/01 08:54:08;;;;;;;5.80;3.15;;;14.50;99.90;;;;;;5073729;28;20072;-61
2022/10/01 08:56:39;;;;;;;6.40;3.17;;;14.50;99.90;;;;;;5073339;28;20048;-61
2022/10/01 08:59:22;;;;;;;4.60;2.92;;;14.60;99.90;;;;;;5073359;28;20055;-62
2022/10/01 09:01:48;;;;;;;4.95;2.83;;;14.80;99.90;;;;;;5073925;28;20044;-61
2022/10/01 09:04:14;;;;;;;4.22;2.42;;;14.80;99.90;;;;;;5072059;28;20501;-61
2022/10/01 09:06:39;;;;;;;4.30;2.50;;;14.90;99.90;;;;;;5073015;28;20049;-62
2022/10/01 09:09:29;;;;;;;4.22;1.88;;;15.10;99.90;;;;;;5073493;28;20044;-62
2022/10/01 09:12:12;;;;;;;4.20;1.95;;;15.20;99.90;;;;;;5073100;28;20481;-62
2022/10/01 09:15:14;;;;;;;5.65;2.00;;;15.10;99.90;;;;;;5071788;28;20489;-62
2022/10/01 09:17:45;;;;;;;6.07;1.80;;;15.20;99.90;;;;;;5073521;28;20053;-62
2022/10/01 09:20:24;;;;;;;4.07;1.98;;;15.20;99.90;;;;;;5073003;28;20040;-62
2022/10/01 09:23:18;;;;;;;4.57;1.92;;;15.20;99.90;;;;;;5072935;28;20043;-62
2022/10/01 09:25:49;;;;;;;4.15;1.35;;;15.20;99.90;;;;;;5071876;28;20396;-62
2022/10/01 09:28:19;;;;;;;4.35;2.20;;;15.30;99.90;;;;;;5073396;28;20041;-62
2022/10/01 09:30:55;;;;;;;2.45;1.27;;;15.40;99.90;;;;;;5072877;28;20048;-63
2022/10/01 09:33:36;;;;;;;6.45;1.67;;;15.30;99.90;;;;;;5071902;28;20055;-62
2022/10/01 09:36:38;;;;;;;4.32;1.58;;;15.20;99.90;;;;;;5072378;28;20088;-61
2022/10/01 09:39:19;;;;;;;3.05;1.30;;;15.30;99.90;;;;;;5073981;28;20114;-61
2022/10/01 09:41:45;;;;;;;4.72;1.30;;;15.30;99.90;;;;;;5072640;28;20485;-62
2022/10/01 09:44:20;;;;;;;3.30;1.20;;;15.20;99.90;;;;;;5073430;28;20052;-62
2022/10/01 09:46:46;;;;;;;3.53;1.00;;;15.20;99.90;;;;;;5071661;28;20059;-62
2022/10/01 09:49:32;;;;;;;2.00;1.10;;;15.10;99.90;;;;;;5072512;28;20370;-62
2022/10/01 09:52:05;;;;;;;4.53;1.38;;;15.10;99.90;;;;;;5072924;28;20037;-62
2022/10/01 09:54:37;;;;;;;3.88;1.40;;;15.00;99.90;;;;;;5072892;28;20542;-61
2022/10/01 09:57:08;;;;;;;3.03;1.20;;;15.20;99.90;;;;;;5072631;28;20136;-61
2022/10/01 09:59:41;;;;;;;3.17;1.00;;;15.60;99.90;;;;;;5072757;28;20429;-61
2022/10/01 10:02:18;;;;;;;3.05;1.00;;;15.90;99.90;;;;;;5072596;28;20098;-61
2022/10/01 10:04:44;;;;;;;2.45;1.00;;;16.10;99.90;;;;;;5072727;28;20041;-61
2022/10/01 10:07:17;;;;;;;3.28;1.00;;;16.10;99.90;;;;;;5072642;28;20059;-62
2022/10/01 10:09:44;;;;;;;2.95;0.88;;;16.10;99.90;;;;;;5072910;28;20055;-61
2022/10/01 10:12:25;;;;;;;2.88;1.00;;;16.00;99.90;;;;;;5071526;28;20415;-62
2022/10/01 10:14:55;;;;;;;2.13;0.68;;;15.90;99.90;;;;;;5072880;28;20201;-61
2022/10/01 10:17:23;;;;;;;1.83;0.55;;;15.90;99.90;;;;;;5072847;28;20392;-62
2022/10/01 10:19:51;;;;;;;1.73;0.88;;;15.70;99.90;;;;;;5072581;28;20062;-62
2022/10/01 10:22:25;;;;;;;2.13;0.80;;;15.50;99.90;;;;;;5072559;28;20045;-62
2022/10/01 10:24:52;;;;;;;3.03;0.70;;;15.30;99.90;;;;;;5071609;28;20052;-62
2022/10/01 10:27:29;;;;;;;2.92;0.90;;;15.20;99.90;;;;;;5075686;28;20371;-62
2022/10/01 10:30:25;;;;;;;3.08;0.70;;;15.00;99.90;;;;;;5076923;28;20060;-61
2022/10/01 10:32:53;;;;;;;1.95;0.70;;;14.80;99.90;;;;;;5067148;28;20139;-62
2022/10/01 10:35:24;;;;;;;4.30;1.25;;;14.60;99.90;;;;;;5076409;28;20382;-61
2022/10/01 10:37:56;;;;;;;3.05;1.23;;;14.50;99.90;;;;;;5075914;28;20115;-62
2022/10/01 10:40:30;;;;;;;2.33;0.70;;;14.50;99.90;;;;;;5075671;28;20055;-62
2022/10/01 10:42:57;;;;;;;2.13;0.70;;;14.60;99.90;;;;;;5074310;28;20048;-61
2022/10/01 10:45:32;;;;;;;3.08;0.85;;;14.80;99.90;;;;;;5075516;28;20044;-63
2022/10/01 10:48:00;;;;;;;3.00;0.80;;;15.00;99.90;;;;;;5075607;28;20159;-62
2022/10/01 10:50:32;;;;;;;3.67;1.00;;;15.20;99.90;;;;;;5075490;28;20128;-62
2022/10/01 10:52:58;;;;;;;3.78;1.20;;;15.20;99.90;;;;;;5075735;28;20047;-61
2022/10/01 10:55:29;;;;;;;3.60;0.90;;;15.20;99.90;;;;;;5075457;28;20134;-66
2022/10/01 10:58:25;;;;;;;3.10;1.27;;;15.20;99.90;;;;;;5075392;28;20047;-68
2022/10/01 11:00:54;;;;;;;2.70;0.73;;;15.20;99.90;;;;;;5075900;28;20378;-65
2022/10/01 11:03:23;;;;;;;2.92;0.82;;;15.10;99.90;;;;;;5075641;28;20058;-66
2022/10/01 11:05:50;;;;;;;4.18;0.95;;;15.00;99.90;;;;;;5075223;28;20036;-67
2022/10/01 11:08:26;;;;;;;3.38;0.85;;;14.90;99.90;;;;;;5075589;28;20117;-66
2022/10/01 11:11:31;;;;;;;2.38;1.00;;;14.70;99.90;;;;;;5075955;28;20126;-66
2022/10/01 11:14:21;;;;;;;1.38;0.60;;;14.50;99.90;;;;;;5075592;28;20114;-65
2022/10/01 11:17:21;;;;;;;0.93;0.50;;;14.00;99.90;;;;;;5075578;28;20102;-66
2022/10/01 11:20:29;;;;;;;1.40;0.47;;;13.40;99.90;;;;;;5075519;28;20055;-65
2022/10/01 11:22:57;;;;;;;;;;;12.90;99.90;;;;;;5075474;28;20048;-66
2022/10/01 11:25:42;;;;;;;1.13;0.45;;;12.60;99.90;;;;;;5075027;28;19965;-66
2022/10/01 11:28:45;;;;;;;1.98;0.50;;;12.40;99.90;;;;;;5075018;28;20049;-67
2022/10/01 11:31:38;;;;;;;0.80;0.68;;;12.30;99.90;;;;;;5074962;28;20176;-69
2022/10/01 11:34:16;;;;;;;1.20;0.60;;;12.30;99.90;;;;;;5074913;28;20055;-69
2022/10/01 11:37:00;;;;;;;1.85;0.47;;;12.30;99.90;;;;;;5074394;28;20051;-70
2022/10/01 11:39:30;;;;;;;1.85;0.50;;;12.30;99.90;;;;;;5074779;28;20040;-69
2022/10/01 11:42:11;;;;;;;2.08;0.60;;;12.40;99.90;;;;;;5073412;28;20044;-71
2022/10/01 11:44:42;;;;;;;2.55;0.70;;;12.50;99.90;;;;;;5074528;28;20386;-69
2022/10/01 11:47:56;;;;;;;2.95;0.70;;;12.60;99.90;;;;;;5074634;28;20063;-69
2022/10/01 11:50:29;;;;;;;3.08;1.00;;;12.80;99.90;;;;;;5073317;28;20052;-71
2022/10/01 11:53:08;;;;;;;3.38;1.08;;;12.90;99.90;;;;;;5075072;28;20045;-71
2022/10/01 11:58:51;;;;;;;2.72;1.20;;;13.10;99.90;;;;;;5075122;28;20105;-69
2022/10/01 12:01:23;;;;;;;4.63;1.10;;;13.30;99.90;;;;;;5074343;28;20051;-69
2022/10/01 12:03:57;;;;;;;1.98;1.00;;;13.40;99.90;;;;;;5074298;28;20052;-69
2022/10/01 12:06:34;;;;;;;3.13;1.20;;;13.50;99.90;;;;;;5075061;28;20049;-70
2022/10/01 12:09:35;;;;;;;5.78;1.30;;;13.60;99.90;;;;;;5074166;28;20064;-69
2022/10/01 12:12:09;;;;;;;4.78;1.17;;;13.70;99.90;;;;;;5074207;28;20543;-70
2022/10/01 12:15:08;;;;;;;2.28;1.00;;;13.90;99.90;;;;;;5074541;28;20393;-69
2022/10/01 12:17:52;;;;;;;4.35;1.27;;;14.10;99.90;;;;;;5038357;28;20059;-68
2022/10/01 12:20:31;;;;;;;2.47;0.95;;;14.30;99.90;;;;;;5073975;28;20102;-69
2022/10/01 12:22:59;;;;;;;4.20;1.25;;;14.40;99.90;;;;;;5073774;28;20465;-70
2022/10/01 12:25:53;;;;;;;3.70;1.30;;;14.50;99.90;;;;;;5073902;28;20048;-70
2022/10/01 12:28:29;;;;;;;5.35;1.40;;;14.60;99.90;;;;;;5052219;28;20087;-70
2022/10/01 12:31:11;;;;;;;4.88;1.20;;;14.70;99.90;;;;;;5073803;28;20047;-70
2022/10/01 12:33:45;;;;;;;6.63;1.45;;;14.90;99.90;;;;;;5073738;28;20087;-68
2022/10/01 12:36:38;;;;;;;3.72;1.20;;;15.00;99.90;;;;;;5074492;28;20381;-70
2022/10/01 12:39:36;;;;;;;4.03;1.23;;;15.10;99.90;;;;;;5073590;28;20037;-70
2022/10/01 12:42:05;;;;;;;4.40;1.60;;;15.10;99.90;;;;;;5065348;28;20393;-70
2022/10/01 12:44:55;;;;;;;4.53;1.17;;;15.10;99.90;;;;;;5073585;28;20077;-67
2022/10/01 12:47:43;;;;;;;4.03;1.20;;;15.00;99.90;;;;;;5073748;28;20478;-68
2022/10/01 12:50:17;;;;;;;5.70;1.25;;;14.90;99.90;;;;;;5073081;28;20048;-69
2022/10/01 12:53:10;;;;;;;4.88;1.20;;;14.80;99.90;;;;;;5073992;28;20051;-69
2022/10/01 12:55:38;;;;;;;3.90;1.20;;;14.70;99.90;;;;;;5073386;28;20059;-69
2022/10/01 12:58:34;;;;;;;5.20;1.38;;;14.60;99.90;;;;;;5073623;28;20067;-67
2022/10/01 13:01:25;;;;;;;4.65;1.30;;;14.50;99.90;;;;;;5073562;28;20098;-68
2022/10/01 13:03:58;;;;;;;2.95;1.10;;;14.40;99.90;;;;;;5072660;28;20052;-68
2022/10/01 13:06:32;;;;;;;5.38;1.33;;;14.40;99.90;;;;;;5073351;28;20048;-68
2022/10/01 13:09:12;;;;;;;3.75;1.20;;;14.50;99.90;;;;;;5073263;28;20048;-68
2022/10/01 13:11:50;;;;;;;2.97;1.33;;;14.60;99.90;;;;;;5071860;28;20485;-68
2022/10/01 13:14:17;;;;;;;4.78;1.30;;;14.50;99.90;;;;;;5073061;28;20507;-68
2022/10/01 13:17:23;;;;;;;5.47;1.30;;;14.60;99.90;;;;;;5073565;28;20051;-68